createdAt,value
2018-05-26T00:00:26.089Z,0.00
2018-05-26T00:01:26.121Z,0.00
2018-05-26T00:02:26.060Z,0.00
2018-05-26T00:03:26.046Z,0.00
2018-05-26T00:04:26.031Z,0.00
2018-05-26T00:05:26.015Z,0.00
2018-05-26T00:06:26.001Z,0.00
2018-05-26T00:07:25.986Z,0.00
2018-05-26T00:08:25.971Z,0.00
2018-05-26T00:09:25.957Z,0.00
2018-05-26T00:10:25.944Z,0.00
2018-05-26T00:11:25.928Z,0.00
2018-05-26T00:12:25.914Z,0.00
2018-05-26T00:13:25.898Z,0.00
2018-05-26T00:14:25.887Z,0.00
2018-05-26T00:15:25.871Z,0.00
2018-05-26T00:16:25.855Z,0.00
2018-05-26T00:17:25.838Z,0.00
2018-05-26T00:18:25.825Z,0.00
2018-05-26T00:19:25.810Z,0.00
2018-05-26T00:20:25.797Z,0.00
2018-05-26T00:21:25.779Z,0.00
2018-05-26T00:22:25.765Z,0.00
2018-05-26T00:23:25.753Z,0.00
2018-05-26T00:24:25.736Z,0.00
2018-05-26T00:25:25.722Z,0.00
2018-05-26T00:26:25.706Z,0.00
2018-05-26T00:27:25.693Z,0.00
2018-05-26T00:28:25.732Z,0.00
2018-05-26T00:29:25.725Z,0.00
2018-05-26T00:30:25.647Z,0.00
2018-05-26T00:31:25.636Z,0.00
2018-05-26T00:32:25.617Z,0.00
2018-05-26T00:33:25.603Z,0.00
2018-05-26T00:34:25.612Z,0.00
2018-05-26T00:35:25.572Z,0.00
2018-05-26T00:36:25.563Z,0.00
2018-05-26T00:37:25.543Z,0.00
2018-05-26T00:38:25.528Z,0.00
2018-05-26T00:39:25.525Z,0.00
2018-05-26T00:40:25.504Z,0.00
2018-05-26T00:41:25.491Z,0.00
2018-05-26T00:42:25.467Z,0.00
2018-05-26T00:43:25.457Z,0.00
2018-05-26T00:44:25.438Z,0.00
2018-05-26T00:45:25.423Z,0.00
2018-05-26T00:46:25.408Z,0.00
2018-05-26T00:47:25.392Z,0.00
2018-05-26T00:48:25.379Z,0.00
2018-05-26T00:49:25.361Z,0.00
2018-05-26T00:50:25.347Z,0.00
2018-05-26T00:51:25.333Z,0.00
2018-05-26T00:52:25.318Z,0.00
2018-05-26T00:53:25.305Z,0.00
2018-05-26T00:54:25.345Z,0.00
2018-05-26T00:55:25.278Z,0.00
2018-05-26T00:56:25.256Z,0.00
2018-05-26T00:57:25.245Z,0.00
2018-05-26T00:58:25.224Z,0.00
2018-05-26T00:59:25.209Z,0.00
2018-05-26T01:00:25.198Z,0.00
2018-05-26T01:01:25.181Z,0.00
2018-05-26T01:02:25.163Z,0.00
2018-05-26T01:03:25.148Z,0.00
2018-05-26T01:04:25.134Z,0.00
2018-05-26T01:05:25.117Z,0.00
2018-05-26T01:06:25.106Z,0.00
2018-05-26T01:07:25.097Z,0.00
2018-05-26T01:08:25.072Z,0.00
2018-05-26T01:09:25.055Z,0.00
2018-05-26T01:10:25.042Z,0.00
2018-05-26T01:11:25.026Z,0.00
2018-05-26T01:12:25.014Z,0.00
2018-05-26T01:13:24.995Z,0.00
2018-05-26T01:14:24.979Z,0.00
2018-05-26T01:15:24.963Z,0.00
2018-05-26T01:16:24.953Z,0.00
2018-05-26T01:17:24.939Z,0.00
2018-05-26T01:18:24.920Z,0.00
2018-05-26T01:19:24.905Z,0.00
2018-05-26T01:20:24.888Z,0.00
2018-05-26T01:21:24.871Z,0.00
2018-05-26T01:22:24.853Z,0.00
2018-05-26T01:23:24.842Z,0.00
2018-05-26T01:24:24.828Z,0.00
2018-05-26T01:25:24.810Z,0.00
2018-05-26T01:26:24.793Z,0.00
2018-05-26T01:27:24.779Z,0.00
2018-05-26T01:28:24.763Z,0.00
2018-05-26T01:29:24.747Z,0.00
2018-05-26T01:30:24.732Z,0.00
2018-05-26T01:31:24.718Z,0.00
2018-05-26T01:32:24.707Z,0.00
2018-05-26T01:33:24.685Z,0.00
2018-05-26T01:34:24.672Z,0.00
2018-05-26T01:35:24.656Z,0.00
2018-05-26T01:36:24.640Z,0.00
2018-05-26T01:37:24.623Z,0.00
2018-05-26T01:38:24.608Z,0.00
2018-05-26T01:39:24.590Z,0.00
2018-05-26T01:40:24.577Z,0.00
2018-05-26T01:41:24.561Z,0.00
2018-05-26T01:42:24.545Z,0.00
2018-05-26T01:43:24.531Z,0.00
2018-05-26T01:44:24.515Z,0.00
2018-05-26T01:45:24.495Z,0.00
2018-05-26T01:46:24.484Z,0.00
2018-05-26T01:47:24.466Z,0.00
2018-05-26T01:48:24.456Z,0.00
2018-05-26T01:49:24.438Z,0.00
2018-05-26T01:50:24.424Z,0.00
2018-05-26T01:51:24.405Z,0.00
2018-05-26T01:52:24.390Z,0.00
2018-05-26T01:53:24.373Z,0.00
2018-05-26T01:54:24.361Z,0.00
2018-05-26T01:55:24.341Z,0.00
2018-05-26T01:56:24.332Z,0.00
2018-05-26T01:57:24.311Z,0.00
2018-05-26T01:58:24.297Z,0.00
2018-05-26T01:59:24.279Z,0.00
2018-05-26T02:00:24.268Z,0.00
2018-05-26T02:01:24.250Z,0.00
2018-05-26T02:02:24.233Z,0.00
2018-05-26T02:03:24.222Z,0.00
2018-05-26T02:04:24.203Z,0.00
2018-05-26T02:05:24.185Z,0.00
2018-05-26T02:06:24.170Z,0.00
2018-05-26T02:07:24.153Z,0.00
2018-05-26T02:08:24.140Z,0.00
2018-05-26T02:09:24.120Z,0.00
2018-05-26T02:10:24.106Z,0.00
2018-05-26T02:11:24.090Z,0.00
2018-05-26T02:12:24.077Z,0.00
2018-05-26T02:13:24.064Z,0.00
2018-05-26T02:14:24.055Z,0.00
2018-05-26T02:15:24.027Z,0.00
2018-05-26T02:16:24.012Z,0.00
2018-05-26T02:17:23.993Z,0.00
2018-05-26T02:18:23.985Z,0.00
2018-05-26T02:19:23.963Z,0.00
2018-05-26T02:20:23.949Z,0.00
2018-05-26T02:21:23.932Z,0.00
2018-05-26T02:22:23.916Z,0.00
2018-05-26T02:23:23.903Z,0.00
2018-05-26T02:24:23.884Z,0.00
2018-05-26T02:25:23.871Z,0.00
2018-05-26T02:26:23.856Z,0.00
2018-05-26T02:27:23.835Z,0.00
2018-05-26T02:28:23.824Z,0.00
2018-05-26T02:29:23.804Z,0.00
2018-05-26T02:30:23.789Z,0.00
2018-05-26T02:31:23.775Z,0.00
2018-05-26T02:32:23.758Z,0.00
2018-05-26T02:33:23.741Z,0.00
2018-05-26T02:34:23.725Z,0.00
2018-05-26T02:35:23.708Z,0.00
2018-05-26T02:36:23.702Z,0.00
2018-05-26T02:37:23.682Z,0.00
2018-05-26T02:38:23.664Z,0.00
2018-05-26T02:39:23.645Z,0.00
2018-05-26T02:40:23.629Z,0.00
2018-05-26T02:41:23.613Z,0.00
2018-05-26T02:42:23.597Z,0.00
2018-05-26T02:43:23.582Z,0.00
2018-05-26T02:44:23.563Z,0.00
2018-05-26T02:45:23.550Z,0.00
2018-05-26T02:46:23.533Z,0.00
2018-05-26T02:47:23.516Z,0.00
2018-05-26T02:48:23.502Z,0.00
2018-05-26T02:49:23.489Z,0.00
2018-05-26T02:50:23.468Z,0.00
2018-05-26T02:51:23.453Z,0.00
2018-05-26T02:52:23.438Z,0.00
2018-05-26T02:53:23.420Z,5.63
2018-05-26T02:54:23.404Z,5.63
2018-05-26T02:55:23.389Z,5.63
2018-05-26T02:56:23.373Z,5.63
2018-05-26T02:57:23.352Z,5.63
2018-05-26T02:58:23.345Z,5.63
2018-05-26T02:59:23.323Z,5.63
2018-05-26T03:00:23.309Z,5.63
2018-05-26T03:01:23.292Z,5.63
2018-05-26T03:02:23.278Z,5.63
2018-05-26T03:03:23.259Z,5.63
2018-05-26T03:04:23.248Z,11.25
2018-05-26T03:05:23.229Z,11.25
2018-05-26T03:06:23.213Z,11.25
2018-05-26T03:07:23.203Z,11.25
2018-05-26T03:08:23.181Z,11.25
2018-05-26T03:09:23.161Z,11.25
2018-05-26T03:10:23.147Z,11.25
2018-05-26T03:11:23.130Z,11.25
2018-05-26T03:12:23.117Z,16.88
2018-05-26T03:13:23.149Z,16.88
2018-05-26T03:14:23.082Z,16.88
2018-05-26T03:15:23.068Z,16.88
2018-05-26T03:16:23.053Z,16.88
2018-05-26T03:17:23.045Z,16.88
2018-05-26T03:18:23.036Z,16.88
2018-05-26T03:19:23.000Z,16.88
2018-05-26T03:20:22.989Z,22.50
2018-05-26T03:21:22.968Z,22.50
2018-05-26T03:22:22.953Z,22.50
2018-05-26T03:23:22.936Z,22.50
2018-05-26T03:24:22.921Z,22.50
2018-05-26T03:25:22.903Z,22.50
2018-05-26T03:26:22.887Z,22.50
2018-05-26T03:27:22.871Z,28.13
2018-05-26T03:28:22.855Z,28.13
2018-05-26T03:29:22.840Z,28.13
2018-05-26T03:30:22.821Z,28.13
2018-05-26T03:31:22.808Z,28.13
2018-05-26T03:32:22.790Z,28.13
2018-05-26T03:33:22.774Z,28.13
2018-05-26T03:34:22.761Z,33.75
2018-05-26T03:35:22.741Z,33.75
2018-05-26T03:36:22.780Z,33.75
2018-05-26T03:37:22.712Z,33.75
2018-05-26T03:38:22.696Z,33.75
2018-05-26T03:39:22.673Z,33.75
2018-05-26T03:40:22.662Z,33.75
2018-05-26T03:41:22.650Z,39.38
2018-05-26T03:42:22.629Z,39.38
2018-05-26T03:43:22.611Z,39.38
2018-05-26T03:44:22.594Z,39.38
2018-05-26T03:45:22.578Z,39.38
2018-05-26T03:46:22.565Z,39.38
2018-05-26T03:47:22.545Z,45.00
2018-05-26T03:48:22.532Z,45.00
2018-05-26T03:49:22.516Z,45.00
2018-05-26T03:50:22.496Z,45.00
2018-05-26T03:51:22.482Z,45.00
2018-05-26T03:52:22.464Z,45.00
2018-05-26T03:53:22.447Z,45.00
2018-05-26T03:54:22.430Z,50.63
2018-05-26T03:55:22.413Z,50.63
2018-05-26T03:56:22.400Z,50.63
2018-05-26T03:57:22.380Z,50.63
2018-05-26T03:58:22.365Z,50.63
2018-05-26T03:59:22.353Z,50.63
2018-05-26T04:00:22.333Z,50.63
2018-05-26T04:01:22.321Z,50.63
2018-05-26T04:02:22.298Z,56.25
2018-05-26T04:03:22.286Z,56.25
2018-05-26T04:04:22.267Z,56.25
2018-05-26T04:05:22.251Z,56.25
2018-05-26T04:06:22.239Z,56.25
2018-05-26T04:07:22.220Z,56.25
2018-05-26T04:08:22.203Z,56.25
2018-05-26T04:09:22.189Z,61.88
2018-05-26T04:10:22.173Z,61.88
2018-05-26T04:11:22.187Z,61.88
2018-05-26T04:12:22.143Z,61.88
2018-05-26T04:13:22.123Z,61.88
2018-05-26T04:14:22.104Z,61.88
2018-05-26T04:15:22.088Z,61.88
2018-05-26T04:16:22.073Z,61.88
2018-05-26T04:17:22.056Z,67.50
2018-05-26T04:18:22.039Z,67.50
2018-05-26T04:19:22.023Z,67.50
2018-05-26T04:20:22.009Z,67.50
2018-05-26T04:21:21.993Z,67.50
2018-05-26T04:22:21.974Z,67.50
2018-05-26T04:23:21.960Z,67.50
2018-05-26T04:24:21.942Z,67.50
2018-05-26T04:25:21.925Z,73.13
2018-05-26T04:26:21.909Z,73.13
2018-05-26T04:27:21.893Z,73.13
2018-05-26T04:28:21.877Z,73.13
2018-05-26T04:29:21.864Z,73.13
2018-05-26T04:30:21.845Z,73.13
2018-05-26T04:31:21.837Z,73.13
2018-05-26T04:32:21.812Z,73.13
2018-05-26T04:33:21.796Z,78.75
2018-05-26T04:34:21.779Z,78.75
2018-05-26T04:35:21.794Z,78.75
2018-05-26T04:36:21.749Z,78.75
2018-05-26T04:37:21.731Z,78.75
2018-05-26T04:38:21.718Z,78.75
2018-05-26T04:39:21.698Z,78.75
2018-05-26T04:40:21.689Z,78.75
2018-05-26T04:41:21.667Z,84.38
2018-05-26T04:42:21.653Z,84.38
2018-05-26T04:43:21.640Z,84.38
2018-05-26T04:44:21.622Z,84.38
2018-05-26T04:45:21.602Z,84.38
2018-05-26T04:46:21.590Z,84.38
2018-05-26T04:47:21.569Z,84.38
2018-05-26T04:48:21.558Z,90.00
2018-05-26T04:49:21.538Z,90.00
2018-05-26T04:50:21.527Z,90.00
2018-05-26T04:51:21.508Z,90.00
2018-05-26T04:52:21.500Z,90.00
2018-05-26T04:53:21.471Z,90.00
2018-05-26T04:54:21.458Z,90.00
2018-05-26T04:55:21.443Z,90.00
2018-05-26T04:56:21.428Z,90.00
2018-05-26T04:57:21.413Z,95.63
2018-05-26T04:58:21.395Z,95.63
2018-05-26T04:59:21.380Z,95.63
2018-05-26T05:00:21.362Z,95.63
2018-05-26T05:01:21.346Z,95.63
2018-05-26T05:02:21.330Z,95.63
2018-05-26T05:03:21.315Z,95.63
2018-05-26T05:04:21.298Z,95.63
2018-05-26T05:05:21.285Z,95.63
2018-05-26T05:06:21.270Z,95.63
2018-05-26T05:07:21.255Z,101.25
2018-05-26T05:08:21.237Z,101.25
2018-05-26T05:09:21.222Z,101.25
2018-05-26T05:10:21.208Z,101.25
2018-05-26T05:11:21.187Z,101.25
2018-05-26T05:12:21.171Z,101.25
2018-05-26T05:13:21.155Z,101.25
2018-05-26T05:14:21.153Z,101.25
2018-05-26T05:15:21.178Z,101.25
2018-05-26T05:16:21.110Z,101.25
2018-05-26T05:17:21.093Z,101.25
2018-05-26T05:18:21.076Z,101.25
2018-05-26T05:19:21.065Z,101.25
2018-05-26T05:20:21.047Z,101.25
2018-05-26T05:21:21.031Z,101.25
2018-05-26T05:22:21.019Z,95.63
2018-05-26T05:23:20.998Z,95.63
2018-05-26T05:24:20.983Z,95.63
2018-05-26T05:25:20.967Z,95.63
2018-05-26T05:26:20.956Z,95.63
2018-05-26T05:27:20.935Z,95.63
2018-05-26T05:28:20.921Z,95.63
2018-05-26T05:29:20.913Z,101.25
2018-05-26T05:30:20.889Z,101.25
2018-05-26T05:31:20.875Z,106.88
2018-05-26T05:32:20.859Z,106.88
2018-05-26T05:33:20.847Z,118.13
2018-05-26T05:34:20.830Z,123.75
2018-05-26T05:35:20.812Z,135.00
2018-05-26T05:36:20.800Z,140.63
2018-05-26T05:37:20.781Z,146.25
2018-05-26T05:38:20.767Z,146.25
2018-05-26T05:39:20.752Z,151.88
2018-05-26T05:40:20.736Z,157.50
2018-05-26T05:41:20.721Z,163.13
2018-05-26T05:42:20.705Z,168.75
2018-05-26T05:43:20.691Z,174.38
2018-05-26T05:44:20.675Z,180.00
2018-05-26T05:45:20.660Z,185.63
2018-05-26T05:46:20.648Z,185.63
2018-05-26T05:47:20.631Z,180.00
2018-05-26T05:48:20.614Z,174.38
2018-05-26T05:49:20.597Z,163.13
2018-05-26T05:50:20.583Z,157.50
2018-05-26T05:51:20.568Z,151.88
2018-05-26T05:52:20.557Z,146.25
2018-05-26T05:53:20.538Z,146.25
2018-05-26T05:54:20.525Z,140.63
2018-05-26T05:55:20.506Z,146.25
2018-05-26T05:56:20.541Z,146.25
2018-05-26T05:57:20.480Z,151.88
2018-05-26T05:58:20.465Z,157.50
2018-05-26T05:59:20.448Z,157.50
2018-05-26T06:00:20.434Z,163.13
2018-05-26T06:01:20.419Z,163.13
2018-05-26T06:02:20.409Z,163.13
2018-05-26T06:03:20.390Z,157.50
2018-05-26T06:04:20.375Z,157.50
2018-05-26T06:05:20.359Z,157.50
2018-05-26T06:06:20.346Z,157.50
2018-05-26T06:07:20.331Z,157.50
2018-05-26T06:08:20.322Z,157.50
2018-05-26T06:09:20.304Z,157.50
2018-05-26T06:10:20.286Z,157.50
2018-05-26T06:11:20.273Z,157.50
2018-05-26T06:12:20.265Z,163.13
2018-05-26T06:13:20.251Z,163.13
2018-05-26T06:14:20.232Z,157.50
2018-05-26T06:15:20.233Z,157.50
2018-05-26T06:16:20.200Z,157.50
2018-05-26T06:17:20.195Z,157.50
2018-05-26T06:18:20.171Z,157.50
2018-05-26T06:19:20.159Z,157.50
2018-05-26T06:20:20.148Z,157.50
2018-05-26T06:21:20.131Z,157.50
2018-05-26T06:22:20.118Z,157.50
2018-05-26T06:23:20.101Z,163.13
2018-05-26T06:24:20.096Z,163.13
2018-05-26T06:25:20.078Z,163.13
2018-05-26T06:26:20.113Z,163.13
2018-05-26T06:27:20.050Z,168.75
2018-05-26T06:28:20.032Z,168.75
2018-05-26T06:29:20.016Z,168.75
2018-05-26T06:30:20.007Z,168.75
2018-05-26T06:31:19.991Z,168.75
2018-05-26T06:32:19.976Z,174.38
2018-05-26T06:33:19.961Z,174.38
2018-05-26T06:34:19.946Z,174.38
2018-05-26T06:35:19.936Z,174.38
2018-05-26T06:36:19.924Z,174.38
2018-05-26T06:37:19.906Z,174.38
2018-05-26T06:38:19.892Z,180.00
2018-05-26T06:39:19.879Z,180.00
2018-05-26T06:40:19.867Z,180.00
2018-05-26T06:41:19.850Z,180.00
2018-05-26T06:42:19.840Z,185.63
2018-05-26T06:43:19.825Z,185.63
2018-05-26T06:44:19.814Z,185.63
2018-05-26T06:45:19.815Z,185.63
2018-05-26T06:46:19.784Z,185.63
2018-05-26T06:47:19.775Z,191.25
2018-05-26T06:48:19.762Z,191.25
2018-05-26T06:49:19.746Z,191.25
2018-05-26T06:50:19.729Z,191.25
2018-05-26T06:51:19.730Z,196.88
2018-05-26T06:52:19.705Z,196.88
2018-05-26T06:53:19.690Z,196.88
2018-05-26T06:54:19.677Z,196.88
2018-05-26T06:55:19.668Z,202.50
2018-05-26T06:56:19.653Z,202.50
2018-05-26T06:57:19.639Z,202.50
2018-05-26T06:58:19.629Z,202.50
2018-05-26T06:59:19.616Z,208.13
2018-05-26T07:00:19.634Z,208.13
2018-05-26T07:01:19.589Z,208.13
2018-05-26T07:02:19.579Z,219.38
2018-05-26T07:03:19.567Z,213.75
2018-05-26T07:04:19.556Z,213.75
2018-05-26T07:05:19.537Z,213.75
2018-05-26T07:06:19.527Z,219.38
2018-05-26T07:07:19.515Z,219.38
2018-05-26T07:08:19.501Z,225.00
2018-05-26T07:09:19.488Z,225.00
2018-05-26T07:10:19.476Z,225.00
2018-05-26T07:11:19.470Z,230.63
2018-05-26T07:12:19.452Z,230.63
2018-05-26T07:13:19.437Z,230.63
2018-05-26T07:14:19.426Z,236.25
2018-05-26T07:15:19.411Z,236.25
2018-05-26T07:16:19.403Z,236.25
2018-05-26T07:17:19.390Z,236.25
2018-05-26T07:18:19.378Z,241.88
2018-05-26T07:19:19.362Z,241.88
2018-05-26T07:20:19.362Z,241.88
2018-05-26T07:21:19.340Z,253.13
2018-05-26T07:22:19.330Z,247.50
2018-05-26T07:23:19.317Z,258.75
2018-05-26T07:24:19.307Z,253.13
2018-05-26T07:25:19.290Z,258.75
2018-05-26T07:26:19.289Z,258.75
2018-05-26T07:27:19.271Z,264.38
2018-05-26T07:28:19.273Z,264.38
2018-05-26T07:29:19.247Z,264.38
2018-05-26T07:30:19.231Z,270.00
2018-05-26T07:31:19.225Z,270.00
2018-05-26T07:32:19.213Z,275.63
2018-05-26T07:33:19.198Z,275.63
2018-05-26T07:34:19.187Z,281.25
2018-05-26T07:35:19.175Z,281.25
2018-05-26T07:36:19.167Z,286.88
2018-05-26T07:37:19.153Z,286.88
2018-05-26T07:38:19.142Z,281.25
2018-05-26T07:39:19.131Z,286.88
2018-05-26T07:40:19.121Z,286.88
2018-05-26T07:41:19.109Z,292.50
2018-05-26T07:42:19.102Z,292.50
2018-05-26T07:43:19.087Z,298.13
2018-05-26T07:44:19.080Z,298.13
2018-05-26T07:45:19.064Z,303.75
2018-05-26T07:46:19.059Z,303.75
2018-05-26T07:47:19.060Z,309.38
2018-05-26T07:48:19.035Z,309.38
2018-05-26T07:49:19.024Z,320.63
2018-05-26T07:50:19.013Z,326.25
2018-05-26T07:51:19.003Z,331.88
2018-05-26T07:52:18.991Z,331.88
2018-05-26T07:53:18.982Z,343.13
2018-05-26T07:54:18.971Z,348.75
2018-05-26T07:55:18.961Z,360.00
2018-05-26T07:56:18.950Z,371.25
2018-05-26T07:57:18.942Z,376.88
2018-05-26T07:58:19.019Z,393.75
2018-05-26T07:59:18.921Z,697.50
2018-05-26T08:00:18.916Z,1670.63
2018-05-26T08:01:18.901Z,225.00
2018-05-26T08:02:18.891Z,225.00
2018-05-26T08:03:18.889Z,230.63
2018-05-26T08:04:18.873Z,230.63
2018-05-26T08:05:18.877Z,230.63
2018-05-26T08:06:18.855Z,230.63
2018-05-26T08:07:18.845Z,236.25
2018-05-26T08:08:18.835Z,236.25
2018-05-26T08:09:18.829Z,236.25
2018-05-26T08:10:18.821Z,236.25
2018-05-26T08:11:18.812Z,236.25
2018-05-26T08:12:18.801Z,241.88
2018-05-26T08:13:18.791Z,241.88
2018-05-26T08:14:18.781Z,241.88
2018-05-26T08:15:18.774Z,241.88
2018-05-26T08:16:18.765Z,241.88
2018-05-26T08:17:18.805Z,241.88
2018-05-26T08:18:18.793Z,241.88
2018-05-26T08:19:18.740Z,241.88
2018-05-26T08:20:18.730Z,241.88
2018-05-26T08:21:18.720Z,247.50
2018-05-26T08:22:18.716Z,247.50
2018-05-26T08:23:18.704Z,241.88
2018-05-26T08:24:18.696Z,241.88
2018-05-26T08:25:18.692Z,247.50
2018-05-26T08:26:18.677Z,247.50
2018-05-26T08:27:18.709Z,247.50
2018-05-26T08:28:18.663Z,247.50
2018-05-26T08:29:18.655Z,253.13
2018-05-26T08:30:18.649Z,253.13
2018-05-26T08:31:18.637Z,253.13
2018-05-26T08:32:18.626Z,253.13
2018-05-26T08:33:18.623Z,253.13
2018-05-26T08:34:18.611Z,258.75
2018-05-26T08:35:18.605Z,258.75
2018-05-26T08:36:18.593Z,258.75
2018-05-26T08:37:18.586Z,258.75
2018-05-26T08:38:18.581Z,258.75
2018-05-26T08:39:18.568Z,264.38
2018-05-26T08:40:18.560Z,264.38
2018-05-26T08:41:18.555Z,264.38
2018-05-26T08:42:18.547Z,264.38
2018-05-26T08:43:18.537Z,264.38
2018-05-26T08:44:18.529Z,264.38
2018-05-26T08:45:18.519Z,270.00
2018-05-26T08:46:18.516Z,270.00
2018-05-26T08:47:18.503Z,270.00
2018-05-26T08:48:18.495Z,270.00
2018-05-26T08:49:18.489Z,270.00
2018-05-26T08:50:18.493Z,270.00
2018-05-26T08:51:18.472Z,275.63
2018-05-26T08:52:18.465Z,275.63
2018-05-26T08:53:18.459Z,275.63
2018-05-26T08:54:18.447Z,275.63
2018-05-26T08:55:18.441Z,275.63
2018-05-26T08:56:18.435Z,275.63
2018-05-26T08:57:18.426Z,281.25
2018-05-26T08:58:18.415Z,281.25
2018-05-26T08:59:18.408Z,281.25
2018-05-26T09:00:18.410Z,281.25
2018-05-26T09:01:18.397Z,286.88
2018-05-26T09:02:18.459Z,286.88
2018-05-26T09:03:18.377Z,286.88
2018-05-26T09:04:18.374Z,286.88
2018-05-26T09:05:18.367Z,286.88
2018-05-26T09:06:18.358Z,292.50
2018-05-26T09:07:18.350Z,292.50
2018-05-26T09:08:18.343Z,292.50
2018-05-26T09:09:18.344Z,298.13
2018-05-26T09:10:18.328Z,298.13
2018-05-26T09:11:18.339Z,298.13
2018-05-26T09:12:18.311Z,298.13
2018-05-26T09:13:18.303Z,298.13
2018-05-26T09:14:18.296Z,303.75
2018-05-26T09:15:18.288Z,303.75
2018-05-26T09:16:18.283Z,303.75
2018-05-26T09:17:18.272Z,303.75
2018-05-26T09:18:18.267Z,303.75
2018-05-26T09:19:18.258Z,309.38
2018-05-26T09:20:18.264Z,309.38
2018-05-26T09:21:18.248Z,309.38
2018-05-26T09:22:18.237Z,320.63
2018-05-26T09:23:18.229Z,315.00
2018-05-26T09:24:18.224Z,320.63
2018-05-26T09:25:18.250Z,320.63
2018-05-26T09:26:18.208Z,326.25
2018-05-26T09:27:18.201Z,326.25
2018-05-26T09:28:18.198Z,326.25
2018-05-26T09:29:18.184Z,326.25
2018-05-26T09:30:18.210Z,326.25
2018-05-26T09:31:18.210Z,331.88
2018-05-26T09:32:18.165Z,331.88
2018-05-26T09:33:18.158Z,331.88
2018-05-26T09:34:18.149Z,331.88
2018-05-26T09:35:18.143Z,331.88
2018-05-26T09:36:18.137Z,337.50
2018-05-26T09:37:18.130Z,337.50
2018-05-26T09:38:18.131Z,343.13
2018-05-26T09:39:18.117Z,343.13
2018-05-26T09:40:18.110Z,343.13
2018-05-26T09:41:18.109Z,348.75
2018-05-26T09:42:18.096Z,348.75
2018-05-26T09:43:18.100Z,348.75
2018-05-26T09:44:18.082Z,348.75
2018-05-26T09:45:18.076Z,354.38
2018-05-26T09:46:18.071Z,354.38
2018-05-26T09:47:18.065Z,354.38
2018-05-26T09:48:18.060Z,354.38
2018-05-26T09:49:18.051Z,354.38
2018-05-26T09:50:18.049Z,354.38
2018-05-26T09:51:18.035Z,354.38
2018-05-26T09:52:18.029Z,360.00
2018-05-26T09:53:18.023Z,360.00
2018-05-26T09:54:18.016Z,360.00
2018-05-26T09:55:18.009Z,337.50
2018-05-26T09:56:18.007Z,388.13
2018-05-26T09:57:17.997Z,5895.00
2018-05-26T09:58:17.991Z,5827.50
2018-05-26T09:59:17.991Z,5720.63
2018-05-26T10:00:17.979Z,5625.00
2018-05-26T10:01:17.972Z,5433.75
2018-05-26T10:02:17.966Z,5208.75
2018-05-26T10:03:17.962Z,5293.13
2018-05-26T10:04:17.994Z,5506.88
2018-05-26T10:05:18.015Z,5698.13
2018-05-26T10:06:17.947Z,5810.63
2018-05-26T10:07:17.946Z,5866.88
2018-05-26T10:08:17.943Z,5923.13
2018-05-26T10:09:17.941Z,3757.50
2018-05-26T10:10:17.934Z,1479.38
2018-05-26T10:11:17.931Z,1395.00
2018-05-26T10:12:17.928Z,1507.50
2018-05-26T10:13:17.930Z,1299.38
2018-05-26T10:14:17.923Z,1305.00
2018-05-26T10:15:17.921Z,2891.25
2018-05-26T10:16:17.919Z,5473.13
2018-05-26T10:17:17.915Z,6052.50
2018-05-26T10:18:17.914Z,6097.50
2018-05-26T10:19:17.913Z,6114.38
2018-05-26T10:20:17.911Z,6013.13
2018-05-26T10:21:17.907Z,5973.75
2018-05-26T10:22:17.907Z,5928.75
2018-05-26T10:23:17.912Z,6013.13
2018-05-26T10:24:17.905Z,6153.75
2018-05-26T10:25:17.907Z,6170.63
2018-05-26T10:26:17.975Z,6193.13
2018-05-26T10:27:17.907Z,6097.50
2018-05-26T10:28:17.905Z,6103.13
2018-05-26T10:29:17.901Z,6165.00
2018-05-26T10:30:17.907Z,6243.75
2018-05-26T10:31:17.899Z,6198.75
2018-05-26T10:32:17.949Z,6030.00
2018-05-26T10:33:17.902Z,5760.00
2018-05-26T10:34:17.906Z,5563.13
2018-05-26T10:35:17.902Z,5619.38
2018-05-26T10:36:17.904Z,5793.75
2018-05-26T10:37:17.904Z,6075.00
2018-05-26T10:38:17.905Z,6215.63
2018-05-26T10:39:17.905Z,6255.00
2018-05-26T10:40:17.910Z,6210.00
2018-05-26T10:41:17.906Z,6153.75
2018-05-26T10:42:17.910Z,6300.00
2018-05-26T10:43:17.963Z,6406.88
2018-05-26T10:44:17.914Z,6513.75
2018-05-26T10:45:17.921Z,6480.00
2018-05-26T10:46:17.918Z,6463.13
2018-05-26T10:47:17.944Z,6502.50
2018-05-26T10:48:17.924Z,6491.25
2018-05-26T10:49:17.924Z,6457.50
2018-05-26T10:50:17.928Z,6440.63
2018-05-26T10:51:17.929Z,6350.63
2018-05-26T10:52:17.932Z,6165.00
2018-05-26T10:53:17.935Z,6226.88
2018-05-26T10:54:17.938Z,5990.63
2018-05-26T10:55:17.943Z,5872.50
2018-05-26T10:56:17.945Z,6406.88
2018-05-26T10:57:17.954Z,3532.50
2018-05-26T10:58:17.953Z,1417.50
2018-05-26T10:59:17.957Z,1175.63
2018-05-26T11:00:17.960Z,973.13
2018-05-26T11:01:17.964Z,781.88
2018-05-26T11:02:17.967Z,652.50
2018-05-26T11:03:17.971Z,618.75
2018-05-26T11:04:18.044Z,579.38
2018-05-26T11:05:17.975Z,551.25
2018-05-26T11:06:18.004Z,534.38
2018-05-26T11:07:17.984Z,511.88
2018-05-26T11:08:17.985Z,466.88
2018-05-26T11:09:17.985Z,382.50
2018-05-26T11:10:17.988Z,371.25
2018-05-26T11:11:17.988Z,360.00
2018-05-26T11:12:17.993Z,354.38
2018-05-26T11:13:17.989Z,360.00
2018-05-26T11:14:17.996Z,354.38
2018-05-26T11:15:17.993Z,337.50
2018-05-26T11:16:17.995Z,343.13
2018-05-26T11:17:17.996Z,343.13
2018-05-26T11:18:17.996Z,416.25
2018-05-26T11:19:17.996Z,500.63
2018-05-26T11:20:18.076Z,551.25
2018-05-26T11:21:17.995Z,6255.00
2018-05-26T11:22:17.998Z,6238.13
2018-05-26T11:23:18.008Z,6243.75
2018-05-26T11:24:18.004Z,6243.75
2018-05-26T11:25:17.998Z,6406.88
2018-05-26T11:26:18.056Z,6193.13
2018-05-26T11:27:17.996Z,6198.75
2018-05-26T11:28:18.006Z,6316.88
2018-05-26T11:29:17.995Z,6356.25
2018-05-26T11:30:18.015Z,6378.75
2018-05-26T11:31:17.998Z,6283.13
2018-05-26T11:32:18.002Z,6232.50
2018-05-26T11:33:17.999Z,6187.50
2018-05-26T11:34:18.013Z,6198.75
2018-05-26T11:35:17.999Z,6288.75
2018-05-26T11:36:18.008Z,6271.88
2018-05-26T11:37:18.030Z,6165.00
2018-05-26T11:38:18.005Z,6013.13
2018-05-26T11:39:18.014Z,5776.88
2018-05-26T11:40:18.010Z,5810.63
2018-05-26T11:41:18.012Z,6024.38
2018-05-26T11:42:18.014Z,6170.63
2018-05-26T11:43:18.016Z,6249.38
2018-05-26T11:44:18.019Z,6176.25
2018-05-26T11:45:18.020Z,6170.63
2018-05-26T11:46:18.024Z,6063.75
2018-05-26T11:47:18.024Z,5478.75
2018-05-26T11:48:18.027Z,3121.88
2018-05-26T11:49:18.027Z,871.88
2018-05-26T11:50:18.032Z,731.25
2018-05-26T11:51:18.032Z,703.13
2018-05-26T11:52:18.036Z,742.50
2018-05-26T11:53:18.080Z,725.63
2018-05-26T11:54:18.038Z,832.50
2018-05-26T11:55:18.039Z,990.00
2018-05-26T11:56:18.039Z,1591.88
2018-05-26T11:57:18.043Z,1485.00
2018-05-26T11:58:18.046Z,1552.50
2018-05-26T11:59:18.045Z,905.63
2018-05-26T12:00:18.057Z,1074.38
2018-05-26T12:01:18.056Z,1293.75
2018-05-26T12:02:18.050Z,1513.13
2018-05-26T12:03:18.058Z,1575.00
2018-05-26T12:04:18.054Z,1063.13
2018-05-26T12:05:18.056Z,4691.25
2018-05-26T12:06:18.055Z,5816.25
2018-05-26T12:07:18.065Z,5928.75
2018-05-26T12:08:18.059Z,5923.13
2018-05-26T12:09:18.059Z,5973.75
2018-05-26T12:10:18.060Z,6013.13
2018-05-26T12:11:18.067Z,5973.75
2018-05-26T12:12:18.068Z,5833.13
2018-05-26T12:13:18.069Z,5433.75
2018-05-26T12:14:18.072Z,5085.00
2018-05-26T12:15:18.073Z,4803.75
2018-05-26T12:16:18.073Z,4623.75
2018-05-26T12:17:18.075Z,4623.75
2018-05-26T12:18:18.075Z,4095.00
2018-05-26T12:19:18.078Z,5653.13
2018-05-26T12:20:18.080Z,5945.63
2018-05-26T12:21:18.089Z,6041.25
2018-05-26T12:22:18.088Z,5596.88
2018-05-26T12:23:18.091Z,5079.38
2018-05-26T12:24:18.102Z,5495.63
2018-05-26T12:25:18.092Z,5911.88
2018-05-26T12:26:18.102Z,5760.00
2018-05-26T12:27:18.097Z,5535.00
2018-05-26T12:28:18.100Z,5636.25
2018-05-26T12:29:18.103Z,3566.25
2018-05-26T12:30:18.105Z,5619.38
2018-05-26T12:31:18.111Z,5529.38
2018-05-26T12:32:18.112Z,5478.75
2018-05-26T12:33:18.120Z,3813.75
2018-05-26T12:34:18.117Z,3487.50
2018-05-26T12:35:18.129Z,3414.38
2018-05-26T12:36:18.125Z,3931.88
2018-05-26T12:37:18.126Z,3195.00
2018-05-26T12:38:18.131Z,2441.25
2018-05-26T12:39:18.133Z,4775.63